Time;durP1;ratioP1;P1;durP2;ratioP2;P2;SDS_P1;SDS_P2;PMS_P1;PMS_P2;Temp;Humidity;BMP_temperature;BMP_pressure;BME280_temperature;BME280_humidity;BME280_pressure;Samples;Min_cycle;Max_cycle;Signal;HPM_P1;HPM_P2
2023/08/11 00:00:40;;;;;;;2.85;2.75;;;21.30;99.90;;;21.68;75.69;101869.97;5057554;28;20048;-71
2023/08/11 00:03:09;;;;;;;2.65;2.55;;;21.30;99.90;;;21.53;75.88;101877.63;5073542;28;20514;-72
2023/08/11 00:05:38;;;;;;;2.80;2.60;;;21.20;99.90;;;21.49;76.41;101872.41;5066321;28;20048;-72
2023/08/11 00:08:08;;;;;;;2.47;2.38;;;21.10;99.90;;;21.25;76.91;101840.91;5065542;28;20087;-74
2023/08/11 00:10:36;;;;;;;3.13;2.92;;;21.00;99.90;;;21.36;77.04;101866.56;5067527;28;20070;-70
2023/08/11 00:13:08;;;;;;;2.72;2.63;;;21.00;99.90;;;21.13;77.23;101838.63;5064502;28;20052;-72
2023/08/11 00:15:39;;;;;;;2.70;2.60;;;20.90;99.90;;;21.29;77.27;101867.66;5065256;28;20057;-71
2023/08/11 00:18:10;;;;;;;3.08;2.95;;;20.80;99.90;;;20.61;77.56;101748.78;5066647;28;20090;-70
2023/08/11 00:20:39;;;;;;;2.72;2.63;;;20.90;99.90;;;20.65;78.36;101780.03;5066300;28;20049;-68
2023/08/11 00:23:07;;;;;;;3.25;3.15;;;20.70;99.90;;;20.91;79.37;101854.53;5072420;28;20440;-73
2023/08/11 00:25:35;;;;;;;3.10;3.00;;;20.50;99.90;;;20.94;79.71;101853.56;5066848;28;20048;-74
2023/08/11 00:28:04;;;;;;;3.22;3.03;;;20.50;99.90;;;20.93;79.91;101844.59;5064437;28;20116;-74
2023/08/11 00:30:33;;;;;;;2.60;2.50;;;20.50;99.90;;;20.81;80.29;101842.28;5067651;28;20048;-73
2023/08/11 00:33:01;;;;;;;2.65;2.55;;;20.40;99.90;;;20.64;81.30;101844.63;5055663;28;20482;-72
2023/08/11 00:35:31;;;;;;;3.25;3.05;;;20.20;99.90;;;20.63;81.13;101835.66;5055947;28;20033;-75
2023/08/11 00:37:59;;;;;;;3.53;3.33;;;20.20;99.90;;;20.78;80.79;101837.00;5056110;28;20080;-75
2023/08/11 00:40:29;;;;;;;2.75;2.65;;;20.30;99.90;;;20.74;80.68;101835.34;5057165;28;20486;-74
2023/08/11 00:42:57;;;;;;;3.58;3.28;;;20.30;99.90;;;20.73;80.87;101835.41;5065708;28;20520;-74
2023/08/11 00:45:26;;;;;;;2.95;2.85;;;20.30;99.90;;;20.71;80.63;101832.75;5065727;28;20494;-74
2023/08/11 00:47:56;;;;;;;6.37;5.83;;;20.30;99.90;;;20.73;81.19;101835.41;5064834;28;20930;-74
2023/08/11 00:50:25;;;;;;;7.65;3.50;;;20.30;99.90;;;20.75;80.78;101837.09;5066916;28;20298;-74
2023/08/11 00:52:55;;;;;;;2.83;2.72;;;20.30;99.90;;;20.89;80.25;101831.28;5063943;28;20049;-73
2023/08/11 00:55:23;;;;;;;3.10;3.00;;;20.50;99.90;;;20.97;79.69;101837.31;5063790;28;20061;-74
2023/08/11 00:57:52;;;;;;;2.60;2.50;;;20.50;99.90;;;21.00;79.52;101834.53;5066819;28;20051;-74
2023/08/11 01:00:21;;;;;;;3.00;2.80;;;20.60;99.90;;;20.94;79.55;101826.66;5064223;28;20045;-74
2023/08/11 01:02:49;;;;;;;2.78;2.67;;;20.60;99.90;;;20.94;79.49;101832.03;5065860;28;20068;-74
2023/08/11 01:05:20;;;;;;;5.35;3.40;;;20.60;99.90;;;20.93;79.67;101839.22;5060554;28;20049;-74
2023/08/11 01:08:05;;;;;;;4.25;3.92;;;20.50;99.90;;;20.94;79.47;101827.53;5081548;28;20052;-72
2023/08/11 01:10:46;;;;;;;2.30;2.20;;;20.60;99.90;;;21.02;79.20;101836.25;5066127;28;20117;-75
2023/08/11 01:13:18;;;;;;;;;;;20.70;99.90;;;20.96;79.22;101830.19;5062423;28;20103;-75
2023/08/11 01:15:57;;;;;;;3.30;3.10;;;20.60;99.90;;;20.93;79.34;101827.56;5055020;28;19928;-74
2023/08/11 01:18:28;;;;;;;3.13;3.00;;;20.60;99.90;;;20.76;79.96;101820.03;5054915;28;20095;-74
2023/08/11 01:21:03;;;;;;;3.50;3.30;;;20.40;99.90;;;20.69;80.32;101822.03;5055202;28;20049;-74
2023/08/11 01:23:34;;;;;;;3.80;3.60;;;20.30;99.90;;;20.72;80.16;101826.44;5065883;28;20135;-74
2023/08/11 01:26:03;;;;;;;3.45;3.25;;;20.30;99.90;;;20.75;80.12;101820.09;5064969;28;20482;-74
2023/08/11 01:28:35;;;;;;;4.50;4.20;;;20.30;99.90;;;20.71;80.17;101816.63;5064182;28;20041;-74
2023/08/11 01:31:04;;;;;;;3.67;3.47;;;20.30;99.90;;;20.63;80.62;101813.28;5063577;28;20064;-74
2023/08/11 01:33:32;;;;;;;4.85;3.53;;;20.30;99.90;;;20.63;80.79;101810.59;5060746;28;20057;-74
2023/08/11 01:36:01;;;;;;;3.38;3.28;;;20.20;99.90;;;20.66;80.73;101810.50;5065519;28;20059;-74
2023/08/11 01:38:29;;;;;;;3.17;3.08;;;20.20;99.90;;;20.65;80.44;101809.59;5070196;28;20103;-75
2023/08/11 01:41:00;;;;;;;3.05;2.95;;;20.20;99.90;;;20.67;80.53;101807.75;5061513;28;20521;-73
2023/08/11 01:43:30;;;;;;;3.60;3.40;;;20.30;99.90;;;20.04;80.35;101694.13;5070104;28;20045;-75
2023/08/11 01:46:00;;;;;;;3.30;3.10;;;20.30;99.90;;;20.72;80.29;101815.69;5064457;28;20060;-74
2023/08/11 01:48:30;;;;;;;3.15;3.05;;;20.30;99.90;;;20.74;79.95;101810.25;5054463;28;20045;-73
2023/08/11 01:50:59;;;;;;;2.85;2.75;;;20.40;99.90;;;20.79;80.03;101813.69;5056389;28;20506;-73
2023/08/11 01:53:27;;;;;;;2.40;2.30;;;20.40;99.90;;;20.89;79.60;101820.53;5063897;28;20041;-74
2023/08/11 01:55:57;;;;;;;2.65;2.55;;;20.50;99.90;;;20.97;78.86;101821.16;5065316;28;20094;-74
2023/08/11 01:58:27;;;;;;;2.88;2.78;;;20.60;99.90;;;20.97;78.71;101826.53;5069412;28;20055;-74
2023/08/11 02:00:56;;;;;;;2.55;2.45;;;20.60;99.90;;;21.02;78.43;101817.44;5069526;28;20056;-72
2023/08/11 02:03:26;;;;;;;2.65;2.55;;;20.70;99.90;;;21.09;77.93;101824.38;5061149;28;20502;-75
2023/08/11 02:05:55;;;;;;;2.78;2.67;;;20.70;99.90;;;20.94;78.29;101811.41;5061404;28;20057;-73
2023/08/11 02:08:24;;;;;;;4.45;3.42;;;20.60;99.90;;;20.78;78.86;101817.28;5071163;28;20044;-75
2023/08/11 02:10:52;;;;;;;3.33;3.13;;;20.40;99.90;;;20.63;79.57;101810.59;5064451;28;20056;-74
2023/08/11 02:13:21;;;;;;;2.70;2.60;;;20.30;99.90;;;20.59;79.78;101804.44;5070154;28;20056;-74
2023/08/11 02:15:52;;;;;;;5.82;5.03;;;20.20;99.90;;;20.48;80.34;101803.88;5060260;28;20063;-74
2023/08/11 02:18:20;;;;;;;3.20;3.10;;;20.10;99.90;;;20.46;80.35;101808.41;5065809;28;20067;-74
2023/08/11 02:20:48;;;;;;;2.88;2.78;;;20.00;99.90;;;20.47;80.19;101812.88;5069307;28;20045;-74
2023/08/11 02:23:17;;;;;;;3.55;3.38;;;20.10;99.90;;;20.52;79.86;101805.53;5052621;28;20045;-74
2023/08/11 02:25:45;;;;;;;3.38;3.17;;;20.10;99.90;;;20.58;79.48;101802.66;5053614;28;20064;-74
2023/08/11 02:28:14;;;;;;;3.05;2.95;;;20.20;99.90;;;20.53;79.76;101801.06;5063423;28;20040;-74
2023/08/11 02:30:42;;;;;;;3.05;2.95;;;20.10;99.90;;;20.52;79.77;101797.47;5053712;28;20071;-74
2023/08/11 02:33:12;;;;;;;3.10;3.00;;;20.10;99.90;;;20.42;80.00;101792.44;5061524;28;20050;-74
2023/08/11 02:35:41;;;;;;;3.45;3.25;;;20.00;99.90;;;20.34;80.23;101789.09;5064355;28;20051;-75
2023/08/11 02:38:09;;;;;;;2.85;2.75;;;20.00;99.90;;;20.35;80.37;101799.78;5062857;28;20083;-75
2023/08/11 02:40:37;;;;;;;5.53;4.72;;;19.90;99.90;;;20.38;80.27;101791.63;5064828;28;20225;-74
2023/08/11 02:43:07;;;;;;;3.13;3.03;;;20.00;99.90;;;20.24;80.77;101798.34;5062085;28;20075;-74
2023/08/11 02:45:36;;;;;;;3.20;3.10;;;19.80;99.90;;;20.26;80.83;101789.31;5060604;28;20098;-74
2023/08/11 02:48:06;;;;;;;3.50;3.38;;;19.80;99.90;;;20.17;81.36;101792.22;5065526;28;20041;-74
2023/08/11 02:50:36;;;;;;;3.13;3.03;;;19.80;99.90;;;20.18;81.16;101788.66;5063572;28;20045;-74
2023/08/11 02:53:05;;;;;;;2.72;2.63;;;19.80;99.90;;;20.24;80.74;101780.44;5064781;28;20537;-74
2023/08/11 02:55:33;;;;;;;3.38;3.28;;;19.90;99.90;;;20.45;80.26;101795.91;5065133;28;20049;-74
2023/08/11 02:58:02;;;;;;;2.97;2.88;;;20.00;99.90;;;20.45;80.20;101793.22;5064343;28;20047;-75
2023/08/11 03:00:33;;;;;;;2.90;2.80;;;20.00;99.90;;;20.48;79.96;101789.53;5065110;28;20076;-74
2023/08/11 03:03:02;;;;;;;3.55;3.35;;;20.10;99.90;;;20.44;79.94;101788.75;5069183;28;20045;-74
2023/08/11 03:05:31;;;;;;;3.20;3.10;;;20.10;99.90;;;20.36;80.45;101787.25;5053098;28;20057;-74
2023/08/11 03:08:00;;;;;;;3.33;3.22;;;20.00;99.90;;;20.31;80.63;101789.16;5053251;28;20095;-73
2023/08/11 03:10:29;;;;;;;2.80;2.70;;;19.90;99.90;;;20.40;80.49;101780.84;5063003;28;20131;-74
2023/08/11 03:13:10;;;;;;;3.90;3.70;;;20.00;99.90;;;20.37;80.36;101786.31;5060915;28;20053;-74
2023/08/11 03:15:39;;;;;;;3.10;3.00;;;20.00;99.90;;;20.26;80.67;101777.69;5060434;28;20056;-74
2023/08/11 03:18:08;;;;;;;7.15;4.47;;;19.90;99.90;;;20.24;80.83;101783.13;5075674;28;20080;-73
2023/08/11 03:20:38;;;;;;;3.17;3.07;;;19.90;99.90;;;20.41;80.54;101785.28;5071140;28;20048;-74
2023/08/11 03:23:08;;;;;;;3.92;3.72;;;20.00;99.90;;;20.39;80.21;101784.44;5061753;28;20120;-74
2023/08/11 03:25:37;;;;;;;2.90;2.80;;;20.00;99.90;;;20.49;79.88;101785.94;5070127;28;20052;-74
2023/08/11 03:28:06;;;;;;;2.90;2.80;;;20.10;99.90;;;20.45;79.92;101784.25;5058219;28;20045;-72
2023/08/11 03:30:34;;;;;;;3.05;2.95;;;20.10;99.90;;;20.53;79.40;101784.91;5063122;28;20040;-74
2023/08/11 03:33:03;;;;;;;2.58;2.47;;;20.20;99.90;;;20.48;79.66;101778.78;5068668;28;20077;-74
2023/08/11 03:35:49;;;;;;;2.92;2.83;;;20.10;99.90;;;20.50;79.47;101777.81;5061490;28;20061;-74
2023/08/11 03:38:19;;;;;;;2.78;2.67;;;20.20;99.90;;;20.49;79.51;101778.75;5078129;28;20060;-74
2023/08/11 03:40:48;;;;;;;3.20;3.00;;;20.10;99.90;;;20.41;79.66;101772.72;5063751;28;20053;-74
2023/08/11 03:43:18;;;;;;;3.58;3.42;;;20.10;99.90;;;20.37;79.62;101775.53;5068299;28;20788;-74
2023/08/11 03:45:46;;;;;;;3.10;3.00;;;20.00;99.90;;;20.36;79.79;101769.28;5059486;28;20055;-74
2023/08/11 03:48:16;;;;;;;3.40;3.20;;;20.00;99.90;;;20.23;80.14;101765.22;5068086;28;20052;-74
2023/08/11 03:50:45;;;;;;;3.45;3.22;;;20.00;99.90;;;20.21;80.43;101766.22;5052613;28;20047;-74
2023/08/11 03:53:15;;;;;;;;;;;19.80;99.90;;;20.14;80.72;101754.72;5059803;28;20103;-74
2023/08/11 03:55:45;;;;;;;2.80;2.70;;;19.80;99.90;;;20.09;81.12;101759.31;5067964;28;19924;-73
2023/08/11 03:58:15;;;;;;;4.40;4.10;;;19.70;99.90;;;20.02;81.00;101752.38;5068586;28;20106;-74
2023/08/11 04:00:45;;;;;;;4.28;3.88;;;19.70;99.90;;;19.96;81.21;101747.19;5058979;28;20041;-74
2023/08/11 04:03:15;;;;;;;4.22;3.88;;;19.60;99.90;;;19.95;81.09;101737.38;5070929;28;20143;-74
2023/08/11 04:05:44;;;;;;;3.75;3.55;;;19.60;99.90;;;19.95;81.47;101744.53;5052223;28;20447;-75
2023/08/11 04:08:12;;;;;;;3.10;3.00;;;19.60;99.90;;;19.90;81.56;101741.97;5052159;28;20080;-74
2023/08/11 04:10:41;;;;;;;33.08;4.55;;;19.50;99.90;;;19.98;81.14;101739.06;5052271;28;20482;-74
2023/08/11 04:13:11;;;;;;;4.20;3.47;;;19.50;99.90;;;19.91;81.15;101737.50;5053734;28;20044;-73
2023/08/11 04:15:40;;;;;;;4.60;4.30;;;19.50;99.90;;;19.91;80.86;101733.00;5062567;28;20513;-73
2023/08/11 04:18:10;;;;;;;2.95;2.85;;;19.50;99.90;;;20.02;80.61;101727.31;5058133;28;20064;-75
2023/08/11 04:20:39;;;;;;;4.05;3.85;;;19.60;99.90;;;19.96;80.56;101728.38;5069749;28;20135;-74
2023/08/11 04:23:07;;;;;;;4.10;3.90;;;19.60;99.90;;;19.86;80.88;101731.38;5067675;28;20060;-74
2023/08/11 04:25:38;;;;;;;4.43;4.18;;;19.50;99.90;;;19.72;80.75;101699.56;5059275;28;20047;-74
2023/08/11 04:28:06;;;;;;;3.53;3.38;;;19.50;99.90;;;19.87;80.51;101709.84;5076378;28;20052;-73
2023/08/11 04:30:37;;;;;;;4.72;4.43;;;19.50;99.90;;;19.19;80.57;101595.50;5082662;28;20094;-74
2023/08/11 04:33:06;;;;;;;3.70;3.50;;;19.50;99.90;;;19.87;80.54;101720.59;5065490;28;20072;-74
2023/08/11 04:35:37;;;;;;;;;;;19.50;99.90;;;19.95;80.51;101725.75;5072975;28;20045;-72
2023/08/11 04:38:07;;;;;;;2.70;2.60;;;19.50;99.90;;;19.96;80.45;101714.06;5065581;28;20015;-73
2023/08/11 04:40:38;;;;;;;4.30;4.00;;;19.50;99.90;;;19.98;79.57;101715.78;5071318;28;20116;-74
2023/08/11 04:43:06;;;;;;;3.65;3.47;;;19.60;99.90;;;19.87;80.08;101709.84;5079437;28;20894;-73
2023/08/11 04:45:40;;;;;;;3.75;3.55;;;19.50;99.90;;;19.91;80.00;101706.16;5068978;28;20416;-74
2023/08/11 04:48:10;;;;;;;2.92;2.83;;;19.50;99.90;;;19.79;79.82;101682.34;5072772;28;20056;-74
2023/08/11 04:50:43;;;;;;;3.70;3.50;;;19.50;99.90;;;19.98;79.41;101715.78;5061869;28;20122;-74
2023/08/11 04:53:11;;;;;;;3.80;3.45;;;19.60;99.90;;;20.06;79.14;101716.44;5066200;28;20041;-73
2023/08/11 04:55:41;;;;;;;2.72;2.63;;;19.60;99.90;;;20.13;79.15;101736.81;5071232;28;20045;-73
2023/08/11 04:58:10;;;;;;;;;;;19.70;99.90;;;20.33;78.23;101728.19;5079585;28;20102;-72
2023/08/11 05:00:40;;;;;;;2.97;2.88;;;19.90;99.90;;;20.48;77.54;101730.38;5073754;28;20433;-73
2023/08/11 05:03:08;;;;;;;2.90;2.80;;;20.10;99.90;;;20.56;77.01;101726.56;5064517;28;20132;-72
2023/08/11 05:05:37;;;;;;;2.75;2.65;;;20.20;99.90;;;20.69;76.64;101729.75;5072523;28;20051;-73
2023/08/11 05:08:06;;;;;;;2.85;2.75;;;20.40;99.90;;;20.84;76.33;101728.34;5064808;28;20130;-73
2023/08/11 05:10:35;;;;;;;2.88;2.78;;;20.50;99.90;;;20.91;75.85;101730.78;5064719;28;20131;-72
2023/08/11 05:13:04;;;;;;;2.40;2.30;;;20.60;99.90;;;20.86;75.47;101696.91;5065780;28;20438;-73
2023/08/11 05:15:33;;;;;;;2.85;2.75;;;20.70;99.90;;;21.12;75.26;101722.03;5064130;28;20051;-74
2023/08/11 05:18:03;;;;;;;2.78;2.67;;;20.80;99.90;;;21.13;74.81;101723.78;5066559;28;20063;-74
2023/08/11 05:20:32;;;;;;;4.07;3.88;;;20.80;99.90;;;21.06;75.21;101727.59;5054861;28;20044;-74
2023/08/11 05:23:00;;;;;;;2.78;2.67;;;20.70;99.90;;;21.20;75.11;101714.56;5054687;28;20045;-73
2023/08/11 05:25:29;;;;;;;3.10;3.00;;;20.80;99.90;;;21.18;75.04;101720.91;5054696;28;20073;-74
2023/08/11 05:27:57;;;;;;;2.75;2.65;;;20.80;99.90;;;21.16;75.15;101720.09;5056037;28;20091;-73
2023/08/11 05:30:27;;;;;;;2.50;2.40;;;20.80;99.90;;;21.25;75.66;101722.50;5063811;28;20559;-74
2023/08/11 05:32:56;;;;;;;3.25;3.08;;;20.80;99.90;;;21.32;75.84;101722.22;5064935;28;20051;-73
2023/08/11 05:35:29;;;;;;;3.28;3.10;;;20.90;99.90;;;20.86;75.79;101648.47;5064233;28;20076;-74
2023/08/11 05:37:59;;;;;;;3.08;2.97;;;20.90;99.90;;;21.35;76.32;101724.78;5066233;28;20048;-73
2023/08/11 05:40:27;;;;;;;2.45;2.35;;;20.90;99.90;;;21.48;76.11;101736.03;5062181;28;20049;-73
2023/08/11 05:42:56;;;;;;;2.50;2.40;;;21.00;99.90;;;21.52;75.62;101729.59;5066160;28;20056;-72
2023/08/11 05:45:25;;;;;;;4.05;3.85;;;21.10;99.90;;;21.76;74.94;101736.78;5065123;28;20037;-74
2023/08/11 05:47:53;;;;;;;2.85;2.75;;;21.30;99.90;;;21.94;74.19;101741.53;5065264;28;20486;-73
2023/08/11 05:50:22;;;;;;;2.92;2.83;;;21.60;99.90;;;21.98;74.33;101743.16;5059846;28;20440;-72
2023/08/11 05:52:52;;;;;;;3.38;3.17;;;21.70;99.90;;;22.22;74.91;101744.91;5064814;28;20045;-74
2023/08/11 05:55:20;;;;;;;2.45;2.35;;;21.90;99.90;;;22.17;75.35;101752.31;5063348;28;20044;-74
2023/08/11 05:57:49;;;;;;;2.20;2.10;;;21.90;99.90;;;22.24;75.52;101751.13;5065520;28;20047;-74
2023/08/11 06:00:19;;;;;;;2.40;2.30;;;22.00;99.90;;;22.26;75.14;101749.25;5062459;28;20473;-73
2023/08/11 06:02:48;;;;;;;2.75;2.65;;;22.00;99.90;;;22.31;75.25;101738.31;5078130;28;20086;-72
2023/08/11 06:05:17;;;;;;;2.70;2.60;;;22.10;99.90;;;22.49;75.72;101747.50;5065199;28;20123;-73
2023/08/11 06:07:45;;;;;;;7.40;4.55;;;22.20;99.90;;;22.63;75.62;101745.19;5063584;28;20081;-74
2023/08/11 06:10:33;;;;;;;4.35;4.03;;;22.30;99.90;;;22.59;76.14;101730.91;5068977;28;20044;-73
2023/08/11 06:13:01;;;;;;;2.50;2.40;;;22.40;99.90;;;22.83;76.35;101750.63;5054151;28;20037;-73
2023/08/11 06:15:30;;;;;;;2.38;2.28;;;22.50;99.90;;;23.08;76.37;101743.25;5053810;28;20045;-73
2023/08/11 06:17:58;;;;;;;2.20;2.10;;;22.70;99.90;;;23.16;75.79;101747.41;5053775;28;20049;-74
2023/08/11 06:20:27;;;;;;;2.30;2.20;;;22.80;99.90;;;23.10;74.72;101738.69;5055407;28;20065;-74
2023/08/11 06:23:09;;;;;;;2.08;1.98;;;22.80;99.90;;;23.24;73.96;101744.38;5061936;28;20047;-74
2023/08/11 06:25:39;;;;;;;2.05;1.95;;;22.90;99.90;;;23.33;74.82;101752.13;5061847;28;20052;-74
2023/08/11 06:28:08;;;;;;;2.10;2.00;;;22.90;99.90;;;23.46;73.39;101747.94;5071609;28;20053;-73
2023/08/11 06:30:36;;;;;;;2.00;1.90;;;23.10;99.90;;;23.63;72.90;101749.91;5062732;28;20041;-74
2023/08/11 06:33:05;;;;;;;2.05;1.95;;;23.20;99.90;;;23.72;73.25;101749.50;5063449;28;20040;-75
2023/08/11 06:35:34;;;;;;;2.83;2.72;;;23.30;99.90;;;23.41;73.84;101717.56;5063642;28;20123;-75
2023/08/11 06:38:02;;;;;;;2.22;2.13;;;23.20;99.90;;;23.67;74.08;101749.72;5062663;28;20082;-75
2023/08/11 06:40:31;;;;;;;2.35;2.25;;;23.30;99.90;;;23.65;74.03;101745.31;5060041;28;20056;-74
2023/08/11 06:43:01;;;;;;;2.78;2.67;;;23.30;99.90;;;23.78;72.59;101744.69;5065292;28;20048;-74
2023/08/11 06:45:29;;;;;;;2.13;2.03;;;23.40;99.90;;;23.83;72.63;101742.66;5053251;28;20383;-77
2023/08/11 06:47:58;;;;;;;3.25;3.15;;;23.50;99.90;;;23.99;73.02;101746.44;5053117;28;20033;-73
2023/08/11 06:50:27;;;;;;;2.20;2.10;;;23.60;99.90;;;24.18;72.44;101735.66;5053459;28;20064;-71
2023/08/11 06:52:56;;;;;;;1.80;1.80;;;23.90;99.90;;;24.43;72.20;101747.06;5061960;28;20047;-72
2023/08/11 06:55:27;;;;;;;2.17;2.08;;;24.10;99.90;;;24.60;70.16;101757.09;5062713;28;20413;-72
2023/08/11 06:57:56;;;;;;;2.22;2.13;;;24.30;99.90;;;24.70;68.11;101755.72;5063666;28;20103;-70
2023/08/11 07:00:26;;;;;;;2.90;2.63;;;24.40;99.90;;;24.75;66.56;101749.16;5062367;28;20437;-66
2023/08/11 07:02:54;;;;;;;1.98;1.88;;;24.50;99.90;;;24.93;66.36;101759.06;5064637;28;20044;-66
2023/08/11 07:05:23;;;;;;;2.00;1.90;;;24.60;99.90;;;24.98;65.23;101756.13;5060978;28;20053;-66
2023/08/11 07:07:51;;;;;;;1.70;1.70;;;24.70;99.90;;;25.10;64.49;101758.22;5068319;28;20076;-66
2023/08/11 07:10:19;;;;;;;2.15;2.05;;;24.80;99.90;;;25.24;63.91;101768.38;5052723;28;20045;-66
2023/08/11 07:12:49;;;;;;;1.90;1.80;;;24.90;99.90;;;25.28;64.24;101753.72;5053168;28;20076;-65
2023/08/11 07:15:18;;;;;;;1.73;1.70;;;25.10;99.90;;;25.53;64.21;101775.91;5054864;28;20053;-67
2023/08/11 07:17:48;;;;;;;2.08;1.98;;;25.20;99.90;;;25.65;63.43;101776.13;5062774;28;20117;-67
2023/08/11 07:20:16;;;;;;;2.00;1.90;;;25.30;99.90;;;25.80;63.86;101774.47;5063157;28;20049;-67
2023/08/11 07:22:45;;;;;;;1.88;1.83;;;25.50;99.90;;;25.98;64.10;101776.16;5062264;28;20037;-66
2023/08/11 07:25:13;;;;;;;1.95;1.88;;;25.70;99.90;;;26.05;61.94;101772.19;5064131;28;20076;-66
2023/08/11 07:27:42;;;;;;;1.60;1.60;;;25.80;99.90;;;26.04;62.01;101762.28;5061209;28;20075;-66
2023/08/11 07:30:11;;;;;;;2.13;2.03;;;25.90;99.90;;;25.58;62.27;101671.72;5052386;28;20080;-66
2023/08/11 07:32:41;;;;;;;1.67;1.67;;;25.90;99.90;;;26.24;61.26;101777.50;5052419;28;20049;-68
2023/08/11 07:35:11;;;;;;;1.80;1.77;;;25.90;99.90;;;26.31;61.59;101784.34;5052422;28;20041;-67
2023/08/11 07:37:39;;;;;;;2.33;2.22;;;26.00;99.90;;;26.38;61.28;101783.06;5054642;28;20049;-68
2023/08/11 07:40:10;;;;;;;1.67;1.67;;;26.10;99.90;;;26.56;62.33;101787.44;5062240;28;20060;-70
2023/08/11 07:42:38;;;;;;;1.60;1.60;;;26.20;99.90;;;26.58;60.30;101789.13;5063424;28;20045;-71
2023/08/11 07:45:09;;;;;;;10.48;4.15;;;26.30;99.90;;;26.58;59.88;101789.13;5068060;28;20037;-68
2023/08/11 07:47:38;;;;;;;;;;;26.30;99.90;;;26.57;60.25;101778.34;5059873;28;20486;-69
2023/08/11 07:50:08;;;;;;;1.60;1.60;;;26.30;99.90;;;26.61;59.83;101782.66;5060521;28;19925;-67
2023/08/11 07:52:38;;;;;;;2.05;1.95;;;26.30;99.90;;;26.61;59.96;101785.38;5070611;28;20063;-66
2023/08/11 07:55:07;;;;;;;1.48;1.48;;;26.30;99.90;;;26.64;60.20;101791.50;5061711;28;20049;-66
2023/08/11 07:57:36;;;;;;;1.70;1.65;;;26.30;99.90;;;26.55;59.92;101788.44;5062336;28;20482;-67
2023/08/11 08:00:06;;;;;;;1.65;1.65;;;26.30;99.90;;;26.60;60.24;101799.88;5062496;28;20073;-67
2023/08/11 08:02:39;;;;;;;1.50;1.50;;;26.20;99.90;;;26.63;60.40;101795.19;5060669;28;20137;-67
2023/08/11 08:05:09;;;;;;;2.40;2.30;;;26.30;99.90;;;26.64;60.25;101796.94;5062400;28;20053;-67
2023/08/11 08:07:42;;;;;;;1.63;1.63;;;26.30;99.90;;;26.59;60.52;101799.03;5065600;28;20057;-67
2023/08/11 08:10:13;;;;;;;1.65;1.65;;;26.30;99.90;;;26.58;60.80;101799.09;5066575;28;20076;-67
2023/08/11 08:12:45;;;;;;;1.60;1.60;;;26.20;99.90;;;26.64;61.13;101798.75;5066582;28;20052;-66
2023/08/11 08:15:16;;;;;;;1.85;1.80;;;26.30;99.90;;;26.50;62.42;101761.53;5064840;28;20044;-67
2023/08/11 08:17:45;;;;;;;2.58;2.47;;;26.30;99.90;;;26.81;61.98;101787.84;5068170;28;20045;-68
2023/08/11 08:20:15;;;;;;;2.00;1.92;;;26.50;99.90;;;26.98;62.11;101792.31;5064532;28;20049;-68
2023/08/11 08:22:46;;;;;;;1.42;1.42;;;26.60;99.90;;;26.99;61.31;101775.03;5067304;28;20064;-68
2023/08/11 08:25:15;;;;;;;;;;;26.80;99.90;;;27.15;60.42;101787.66;5061540;28;20048;-68
2023/08/11 08:27:43;;;;;;;1.70;1.70;;;26.90;99.90;;;27.15;60.51;101784.94;5066100;28;20250;-69
2023/08/11 08:30:13;;;;;;;1.63;1.63;;;26.90;99.90;;;26.91;60.50;101723.88;5065217;28;20045;-70
2023/08/11 08:32:43;;;;;;;1.45;1.45;;;27.00;99.90;;;27.35;60.64;101787.38;5066749;28;20094;-69
2023/08/11 08:35:12;;;;;;;1.58;1.58;;;27.00;99.90;;;27.51;60.90;101799.09;5064354;28;20041;-69
2023/08/11 08:37:40;;;;;;;5.97;5.53;;;27.20;99.90;;;27.64;60.00;101802.81;5055699;28;20053;-69
2023/08/11 08:40:12;;;;;;;3.30;2.15;;;27.30;99.90;;;27.60;58.88;101803.97;5055531;28;20132;-70
2023/08/11 08:42:41;;;;;;;1.52;1.52;;;27.40;99.90;;;27.48;59.74;101798.41;5056216;28;20048;-74
2023/08/11 08:45:10;;;;;;;1.40;1.40;;;27.20;99.90;;;27.47;59.65;101800.25;5057188;28;20045;-83
2023/08/11 08:47:40;;;;;;;1.60;1.60;;;27.20;99.90;;;27.66;60.42;101800.03;5065567;28;20102;-77
2023/08/11 08:50:10;;;;;;;1.30;1.30;;;27.30;99.90;;;27.71;59.91;101802.47;5066102;28;20067;-75
2023/08/11 08:52:40;;;;;;;1.75;1.75;;;27.40;99.90;;;27.67;59.41;101783.63;5064380;28;20052;-69
2023/08/11 08:55:10;;;;;;;1.50;1.50;;;27.50;99.90;;;27.85;60.49;101792.50;5067308;28;20041;-71
2023/08/11 08:57:39;;;;;;;1.33;1.33;;;27.50;99.90;;;27.91;60.08;101789.41;5055247;28;20073;-69
2023/08/11 09:00:09;;;;;;;1.63;1.63;;;27.70;99.90;;;27.95;59.53;101785.53;5055097;28;20048;-68
2023/08/11 09:02:37;;;;;;;1.40;1.40;;;27.70;99.90;;;28.04;58.88;101784.97;5055086;28;20071;-69
2023/08/11 09:05:08;;;;;;;1.63;1.63;;;27.80;99.90;;;28.14;59.49;101796.16;5057006;28;20033;-69
2023/08/11 09:07:37;;;;;;;1.50;1.50;;;27.90;99.90;;;28.14;59.09;101785.28;5064721;28;20045;-70
2023/08/11 09:10:07;;;;;;;1.30;1.30;;;27.90;99.90;;;28.18;58.55;101797.72;5065842;28;20095;-70
2023/08/11 09:12:37;;;;;;;1.52;1.52;;;27.90;99.90;;;28.19;60.08;101786.72;5078881;28;20448;-73
2023/08/11 09:15:11;;;;;;;3.72;2.08;;;27.90;99.90;;;28.22;59.76;101782.94;5053931;28;20072;-73
2023/08/11 09:17:41;;;;;;;1.42;1.42;;;28.00;99.90;;;28.10;58.23;101783.72;5055361;28;20033;-72
2023/08/11 09:20:13;;;;;;;1.42;1.42;;;27.90;99.90;;;28.19;57.96;101786.72;5054975;28;20111;-72
2023/08/11 09:22:42;;;;;;;1.10;1.10;;;27.90;99.90;;;28.27;58.49;101794.41;5057739;28;20142;-71
2023/08/11 09:25:12;;;;;;;1.30;1.30;;;28.00;99.90;;;28.26;58.68;101785.38;5063935;28;20075;-70
2023/08/11 09:27:42;;;;;;;1.42;1.42;;;28.00;99.90;;;28.37;58.13;101793.75;5066428;28;20044;-72
2023/08/11 09:30:13;;;;;;;1.55;1.52;;;28.10;99.90;;;28.39;57.47;101796.38;5054498;28;20037;-73
2023/08/11 09:32:42;;;;;;;1.38;1.38;;;28.20;99.90;;;28.40;57.16;101803.53;5054557;28;20139;-72
2023/08/11 09:35:12;;;;;;;1.20;1.20;;;28.20;99.90;;;28.43;57.14;101792.47;5054568;28;20041;-70
2023/08/11 09:37:44;;;;;;;3.25;2.40;;;28.20;99.90;;;28.52;56.88;101800.94;5056923;28;20114;-69
2023/08/11 09:40:12;;;;;;;1.15;1.15;;;28.20;99.90;;;28.31;55.88;101777.81;5070315;28;20080;-69
2023/08/11 09:42:44;;;;;;;1.35;1.35;;;28.20;99.90;;;28.50;56.92;101804.72;5065957;28;20049;-69
2023/08/11 09:45:12;;;;;;;1.25;1.25;;;28.20;99.90;;;28.49;57.24;101800.25;5054212;28;20064;-70
2023/08/11 09:47:41;;;;;;;1.50;1.50;;;28.20;99.90;;;28.50;57.31;101794.69;5054324;28;20391;-69
2023/08/11 09:50:10;;;;;;;1.30;1.30;;;28.20;99.90;;;28.62;58.19;101798.53;5054156;28;20053;-70
2023/08/11 09:52:40;;;;;;;1.33;1.33;;;28.30;99.90;;;28.69;57.88;101799.84;5055670;28;20037;-69
2023/08/11 09:55:10;;;;;;;;;;;28.40;99.90;;;28.67;58.39;101798.22;5064275;28;20041;-70
2023/08/11 09:57:41;;;;;;;1.20;1.20;;;28.40;99.90;;;28.83;58.58;101801.69;5065022;28;20438;-69
2023/08/11 10:00:13;;;;;;;1.20;1.20;;;28.50;99.90;;;28.84;59.08;101801.56;5062845;28;20432;-69
2023/08/11 10:02:47;;;;;;;1.20;1.20;;;28.60;99.90;;;28.91;57.06;101783.88;5054094;28;20076;-69
2023/08/11 10:05:18;;;;;;;1.40;1.40;;;28.80;99.90;;;29.11;56.34;101797.03;5054016;28;20045;-69
2023/08/11 10:07:48;;;;;;;;;;;28.80;99.90;;;29.15;55.91;101804.06;5054795;28;20110;-69
2023/08/11 10:10:19;;;;;;;1.10;1.10;;;28.90;99.90;;;29.23;55.90;101801.69;5056525;28;19925;-69
2023/08/11 10:13:00;;;;;;;1.15;1.15;;;29.00;99.90;;;29.30;56.32;101805.78;5062193;28;20041;-69
2023/08/11 10:15:32;;;;;;;1.10;1.10;;;29.00;99.90;;;29.33;56.11;101799.22;5063508;28;20037;-69
2023/08/11 10:18:01;;;;;;;1.30;1.30;;;29.00;99.90;;;29.28;56.25;101806.84;5063058;28;20064;-69
2023/08/11 10:20:31;;;;;;;1.10;1.10;;;29.10;99.90;;;29.26;55.82;101806.97;5064669;28;20051;-69
2023/08/11 10:23:00;;;;;;;1.20;1.20;;;29.00;99.90;;;29.30;55.89;101800.31;5062041;28;20041;-69
2023/08/11 10:25:29;;;;;;;1.30;1.30;;;29.00;99.90;;;29.28;56.12;101805.00;5061473;28;20060;-69